sensor_id;sensor_type;location;lat;lon;timestamp;P1;durP1;ratioP1;P2;durP2;ratioP2
41685;SDS011;27370;42.764;23.432;2023-12-20T00:15:27;200.45;;;81.28;;
41685;SDS011;27370;42.764;23.432;2023-12-20T00:31:07;158.57;;;75.22;;
41685;SDS011;27370;42.764;23.432;2023-12-20T00:33:32;141.10;;;69.65;;
41685;SDS011;27370;42.764;23.432;2023-12-20T00:35:57;139.73;;;65.53;;
41685;SDS011;27370;42.764;23.432;2023-12-20T00:38:23;132.25;;;62.78;;
41685;SDS011;27370;42.764;23.432;2023-12-20T00:40:48;146.10;;;64.10;;
41685;SDS011;27370;42.764;23.432;2023-12-20T00:43:15;151.00;;;62.72;;
41685;SDS011;27370;42.764;23.432;2023-12-20T00:45:40;165.30;;;62.83;;
41685;SDS011;27370;42.764;23.432;2023-12-20T00:48:06;194.27;;;67.53;;
41685;SDS011;27370;42.764;23.432;2023-12-20T00:50:31;226.77;;;74.22;;
41685;SDS011;27370;42.764;23.432;2023-12-20T00:52:57;309.35;;;91.20;;
41685;SDS011;27370;42.764;23.432;2023-12-20T00:55:22;284.77;;;87.68;;
41685;SDS011;27370;42.764;23.432;2023-12-20T00:57:48;272.27;;;84.00;;
41685;SDS011;27370;42.764;23.432;2023-12-20T01:00:13;341.80;;;87.07;;
41685;SDS011;27370;42.764;23.432;2023-12-20T01:02:39;225.52;;;70.93;;
41685;SDS011;27370;42.764;23.432;2023-12-20T01:05:05;216.23;;;69.60;;
41685;SDS011;27370;42.764;23.432;2023-12-20T01:07:32;218.20;;;69.78;;
41685;SDS011;27370;42.764;23.432;2023-12-20T01:09:58;185.50;;;62.78;;
41685;SDS011;27370;42.764;23.432;2023-12-20T01:12:23;201.23;;;58.88;;
41685;SDS011;27370;42.764;23.432;2023-12-20T01:14:49;182.52;;;59.03;;
41685;SDS011;27370;42.764;23.432;2023-12-20T01:17:14;154.32;;;55.88;;
41685;SDS011;27370;42.764;23.432;2023-12-20T01:19:40;132.27;;;51.92;;
41685;SDS011;27370;42.764;23.432;2023-12-20T01:22:05;109.18;;;38.40;;
41685;SDS011;27370;42.764;23.432;2023-12-20T01:24:31;140.38;;;46.30;;
41685;SDS011;27370;42.764;23.432;2023-12-20T01:26:56;105.70;;;38.05;;
41685;SDS011;27370;42.764;23.432;2023-12-20T01:29:21;103.70;;;42.95;;
41685;SDS011;27370;42.764;23.432;2023-12-20T01:31:47;104.63;;;41.13;;
41685;SDS011;27370;42.764;23.432;2023-12-20T01:34:12;114.13;;;44.97;;
41685;SDS011;27370;42.764;23.432;2023-12-20T01:36:38;127.32;;;42.33;;
41685;SDS011;27370;42.764;23.432;2023-12-20T01:39:03;135.10;;;46.00;;
41685;SDS011;27370;42.764;23.432;2023-12-20T01:41:29;102.53;;;40.45;;
41685;SDS011;27370;42.764;23.432;2023-12-20T01:43:54;121.20;;;40.38;;
41685;SDS011;27370;42.764;23.432;2023-12-20T01:46:20;89.28;;;36.58;;
41685;SDS011;27370;42.764;23.432;2023-12-20T01:48:46;99.80;;;37.70;;
41685;SDS011;27370;42.764;23.432;2023-12-20T01:51:13;95.43;;;35.28;;
41685;SDS011;27370;42.764;23.432;2023-12-20T01:53:39;97.40;;;40.38;;
41685;SDS011;27370;42.764;23.432;2023-12-20T01:56:07;96.70;;;33.17;;
41685;SDS011;27370;42.764;23.432;2023-12-20T01:58:33;85.10;;;33.42;;
41685;SDS011;27370;42.764;23.432;2023-12-20T02:00:59;88.53;;;33.95;;
41685;SDS011;27370;42.764;23.432;2023-12-20T02:03:25;95.70;;;32.67;;
41685;SDS011;27370;42.764;23.432;2023-12-20T02:05:52;55.55;;;24.98;;
41685;SDS011;27370;42.764;23.432;2023-12-20T02:08:18;69.70;;;28.90;;
41685;SDS011;27370;42.764;23.432;2023-12-20T02:10:43;69.15;;;31.23;;
41685;SDS011;27370;42.764;23.432;2023-12-20T02:13:09;61.60;;;27.25;;
41685;SDS011;27370;42.764;23.432;2023-12-20T02:15:35;64.18;;;25.70;;
41685;SDS011;27370;42.764;23.432;2023-12-20T02:18:02;82.22;;;28.55;;
41685;SDS011;27370;42.764;23.432;2023-12-20T02:20:28;59.60;;;25.67;;
41685;SDS011;27370;42.764;23.432;2023-12-20T02:22:53;62.38;;;23.90;;
41685;SDS011;27370;42.764;23.432;2023-12-20T02:25:19;64.22;;;25.88;;
41685;SDS011;27370;42.764;23.432;2023-12-20T02:27:45;61.35;;;26.90;;
41685;SDS011;27370;42.764;23.432;2023-12-20T02:30:10;74.18;;;28.45;;
41685;SDS011;27370;42.764;23.432;2023-12-20T02:32:36;83.63;;;32.63;;
41685;SDS011;27370;42.764;23.432;2023-12-20T02:35:02;73.18;;;29.13;;
41685;SDS011;27370;42.764;23.432;2023-12-20T02:37:27;92.93;;;34.00;;
41685;SDS011;27370;42.764;23.432;2023-12-20T02:39:53;103.13;;;33.63;;
41685;SDS011;27370;42.764;23.432;2023-12-20T02:42:18;88.53;;;33.25;;
41685;SDS011;27370;42.764;23.432;2023-12-20T02:44:44;109.97;;;34.33;;
41685;SDS011;27370;42.764;23.432;2023-12-20T02:47:09;100.20;;;38.63;;
41685;SDS011;27370;42.764;23.432;2023-12-20T02:49:35;109.53;;;38.42;;
41685;SDS011;27370;42.764;23.432;2023-12-20T02:52:00;92.03;;;37.20;;
41685;SDS011;27370;42.764;23.432;2023-12-20T02:54:26;98.63;;;36.45;;
41685;SDS011;27370;42.764;23.432;2023-12-20T02:56:51;100.50;;;36.03;;
41685;SDS011;27370;42.764;23.432;2023-12-20T02:59:17;97.72;;;35.83;;
41685;SDS011;27370;42.764;23.432;2023-12-20T03:01:46;99.72;;;39.38;;
41685;SDS011;27370;42.764;23.432;2023-12-20T03:04:11;90.78;;;35.42;;
41685;SDS011;27370;42.764;23.432;2023-12-20T03:06:38;77.38;;;31.55;;
41685;SDS011;27370;42.764;23.432;2023-12-20T03:09:04;80.00;;;30.77;;
41685;SDS011;27370;42.764;23.432;2023-12-20T03:11:29;105.38;;;31.90;;
41685;SDS011;27370;42.764;23.432;2023-12-20T03:13:55;97.00;;;31.08;;
41685;SDS011;27370;42.764;23.432;2023-12-20T03:16:21;99.03;;;34.20;;
41685;SDS011;27370;42.764;23.432;2023-12-20T03:18:47;73.25;;;31.90;;
41685;SDS011;27370;42.764;23.432;2023-12-20T03:21:13;93.57;;;32.58;;
41685;SDS011;27370;42.764;23.432;2023-12-20T03:23:38;85.30;;;31.50;;
41685;SDS011;27370;42.764;23.432;2023-12-20T03:26:06;126.93;;;33.05;;
41685;SDS011;27370;42.764;23.432;2023-12-20T03:28:32;91.78;;;30.98;;
41685;SDS011;27370;42.764;23.432;2023-12-20T03:30:58;83.68;;;34.17;;
41685;SDS011;27370;42.764;23.432;2023-12-20T03:33:24;69.65;;;30.23;;
41685;SDS011;27370;42.764;23.432;2023-12-20T03:35:49;86.05;;;35.08;;
41685;SDS011;27370;42.764;23.432;2023-12-20T03:38:15;73.43;;;28.40;;
41685;SDS011;27370;42.764;23.432;2023-12-20T03:40:40;76.85;;;28.85;;
41685;SDS011;27370;42.764;23.432;2023-12-20T03:43:06;73.97;;;28.02;;
41685;SDS011;27370;42.764;23.432;2023-12-20T03:45:31;70.72;;;28.25;;
41685;SDS011;27370;42.764;23.432;2023-12-20T03:47:57;72.90;;;28.00;;
41685;SDS011;27370;42.764;23.432;2023-12-20T03:50:22;77.15;;;26.23;;
41685;SDS011;27370;42.764;23.432;2023-12-20T03:52:48;87.80;;;27.40;;
41685;SDS011;27370;42.764;23.432;2023-12-20T03:55:14;63.50;;;26.17;;
41685;SDS011;27370;42.764;23.432;2023-12-20T03:57:40;65.88;;;26.02;;
41685;SDS011;27370;42.764;23.432;2023-12-20T04:00:06;67.68;;;28.60;;
41685;SDS011;27370;42.764;23.432;2023-12-20T04:02:37;90.38;;;32.45;;
41685;SDS011;27370;42.764;23.432;2023-12-20T04:05:03;93.97;;;33.00;;
41685;SDS011;27370;42.764;23.432;2023-12-20T04:07:30;98.32;;;32.53;;
41685;SDS011;27370;42.764;23.432;2023-12-20T04:09:56;91.32;;;29.98;;
41685;SDS011;27370;42.764;23.432;2023-12-20T04:12:21;117.90;;;29.27;;
41685;SDS011;27370;42.764;23.432;2023-12-20T04:14:46;69.85;;;29.88;;
41685;SDS011;27370;42.764;23.432;2023-12-20T04:17:12;71.65;;;28.52;;
41685;SDS011;27370;42.764;23.432;2023-12-20T04:19:38;68.15;;;25.05;;
41685;SDS011;27370;42.764;23.432;2023-12-20T04:22:03;52.22;;;25.70;;
41685;SDS011;27370;42.764;23.432;2023-12-20T04:24:29;124.20;;;32.28;;
41685;SDS011;27370;42.764;23.432;2023-12-20T04:26:54;88.43;;;28.27;;
41685;SDS011;27370;42.764;23.432;2023-12-20T04:29:20;126.38;;;31.75;;
41685;SDS011;27370;42.764;23.432;2023-12-20T04:31:45;93.03;;;30.67;;
41685;SDS011;27370;42.764;23.432;2023-12-20T04:34:11;101.68;;;35.17;;
41685;SDS011;27370;42.764;23.432;2023-12-20T04:36:36;117.68;;;34.22;;
41685;SDS011;27370;42.764;23.432;2023-12-20T04:39:02;81.70;;;32.28;;
41685;SDS011;27370;42.764;23.432;2023-12-20T04:41:28;82.30;;;31.88;;
41685;SDS011;27370;42.764;23.432;2023-12-20T04:43:53;94.90;;;39.20;;
41685;SDS011;27370;42.764;23.432;2023-12-20T04:46:19;95.72;;;33.65;;
41685;SDS011;27370;42.764;23.432;2023-12-20T04:48:44;184.63;;;47.10;;
41685;SDS011;27370;42.764;23.432;2023-12-20T04:51:10;172.93;;;42.40;;
41685;SDS011;27370;42.764;23.432;2023-12-20T04:53:35;93.78;;;35.60;;
41685;SDS011;27370;42.764;23.432;2023-12-20T04:56:01;116.68;;;36.10;;
41685;SDS011;27370;42.764;23.432;2023-12-20T04:58:26;124.60;;;35.00;;
41685;SDS011;27370;42.764;23.432;2023-12-20T05:00:52;75.07;;;27.77;;
41685;SDS011;27370;42.764;23.432;2023-12-20T05:03:17;73.22;;;29.25;;
41685;SDS011;27370;42.764;23.432;2023-12-20T05:05:43;106.43;;;32.88;;
41685;SDS011;27370;42.764;23.432;2023-12-20T05:08:08;82.55;;;25.48;;
41685;SDS011;27370;42.764;23.432;2023-12-20T05:10:34;56.67;;;23.92;;
41685;SDS011;27370;42.764;23.432;2023-12-20T05:13:01;83.68;;;26.25;;
41685;SDS011;27370;42.764;23.432;2023-12-20T05:15:27;80.60;;;22.65;;
41685;SDS011;27370;42.764;23.432;2023-12-20T05:17:52;86.40;;;28.15;;
41685;SDS011;27370;42.764;23.432;2023-12-20T05:20:18;85.93;;;26.27;;
41685;SDS011;27370;42.764;23.432;2023-12-20T05:22:43;55.50;;;19.83;;
41685;SDS011;27370;42.764;23.432;2023-12-20T05:25:10;68.97;;;20.50;;
41685;SDS011;27370;42.764;23.432;2023-12-20T05:27:35;77.15;;;22.85;;
41685;SDS011;27370;42.764;23.432;2023-12-20T05:30:01;83.72;;;27.33;;
41685;SDS011;27370;42.764;23.432;2023-12-20T05:32:26;48.03;;;18.23;;
41685;SDS011;27370;42.764;23.432;2023-12-20T05:34:52;54.45;;;18.70;;
41685;SDS011;27370;42.764;23.432;2023-12-20T05:37:17;91.10;;;32.58;;
41685;SDS011;27370;42.764;23.432;2023-12-20T05:39:43;55.35;;;23.98;;
41685;SDS011;27370;42.764;23.432;2023-12-20T05:42:09;48.85;;;21.35;;
41685;SDS011;27370;42.764;23.432;2023-12-20T05:44:34;63.15;;;24.58;;
41685;SDS011;27370;42.764;23.432;2023-12-20T05:47:00;74.40;;;26.55;;
41685;SDS011;27370;42.764;23.432;2023-12-20T05:49:26;63.13;;;26.13;;
41685;SDS011;27370;42.764;23.432;2023-12-20T05:51:51;100.00;;;29.58;;
41685;SDS011;27370;42.764;23.432;2023-12-20T05:54:17;82.47;;;28.23;;
41685;SDS011;27370;42.764;23.432;2023-12-20T05:56:42;89.13;;;31.17;;
41685;SDS011;27370;42.764;23.432;2023-12-20T05:59:08;109.60;;;32.33;;
41685;SDS011;27370;42.764;23.432;2023-12-20T06:01:34;99.70;;;32.15;;
41685;SDS011;27370;42.764;23.432;2023-12-20T06:03:59;97.60;;;35.53;;
41685;SDS011;27370;42.764;23.432;2023-12-20T06:06:25;77.15;;;32.72;;
41685;SDS011;27370;42.764;23.432;2023-12-20T06:08:50;99.55;;;33.28;;
41685;SDS011;27370;42.764;23.432;2023-12-20T06:11:16;99.95;;;35.50;;
41685;SDS011;27370;42.764;23.432;2023-12-20T06:13:42;110.18;;;36.60;;
41685;SDS011;27370;42.764;23.432;2023-12-20T06:16:07;195.85;;;54.63;;
41685;SDS011;27370;42.764;23.432;2023-12-20T06:18:33;149.95;;;41.47;;
41685;SDS011;27370;42.764;23.432;2023-12-20T06:20:58;109.72;;;34.55;;
41685;SDS011;27370;42.764;23.432;2023-12-20T06:23:24;60.17;;;25.02;;
41685;SDS011;27370;42.764;23.432;2023-12-20T06:25:50;66.63;;;28.70;;
41685;SDS011;27370;42.764;23.432;2023-12-20T06:28:15;72.30;;;26.88;;
41685;SDS011;27370;42.764;23.432;2023-12-20T06:30:41;106.25;;;29.10;;
41685;SDS011;27370;42.764;23.432;2023-12-20T06:33:06;88.15;;;26.10;;
41685;SDS011;27370;42.764;23.432;2023-12-20T06:35:32;66.97;;;25.88;;
41685;SDS011;27370;42.764;23.432;2023-12-20T06:37:57;80.10;;;31.23;;
41685;SDS011;27370;42.764;23.432;2023-12-20T06:40:23;80.68;;;27.38;;
41685;SDS011;27370;42.764;23.432;2023-12-20T06:42:48;77.00;;;28.83;;
41685;SDS011;27370;42.764;23.432;2023-12-20T06:45:14;77.03;;;29.25;;
41685;SDS011;27370;42.764;23.432;2023-12-20T06:47:40;87.15;;;33.72;;
41685;SDS011;27370;42.764;23.432;2023-12-20T06:50:05;69.55;;;34.40;;
41685;SDS011;27370;42.764;23.432;2023-12-20T06:52:33;98.95;;;38.42;;
41685;SDS011;27370;42.764;23.432;2023-12-20T06:55:00;79.75;;;32.50;;
41685;SDS011;27370;42.764;23.432;2023-12-20T06:57:25;129.65;;;41.17;;
41685;SDS011;27370;42.764;23.432;2023-12-20T06:59:51;170.75;;;43.20;;
41685;SDS011;27370;42.764;23.432;2023-12-20T07:02:17;101.28;;;34.53;;
41685;SDS011;27370;42.764;23.432;2023-12-20T07:04:42;120.35;;;37.60;;
41685;SDS011;27370;42.764;23.432;2023-12-20T07:07:08;152.80;;;35.42;;
41685;SDS011;27370;42.764;23.432;2023-12-20T07:09:34;76.25;;;28.80;;
41685;SDS011;27370;42.764;23.432;2023-12-20T07:11:59;77.40;;;31.27;;
41685;SDS011;27370;42.764;23.432;2023-12-20T07:14:25;111.60;;;37.40;;
41685;SDS011;27370;42.764;23.432;2023-12-20T07:16:50;149.50;;;37.03;;
41685;SDS011;27370;42.764;23.432;2023-12-20T07:19:16;109.40;;;34.70;;
41685;SDS011;27370;42.764;23.432;2023-12-20T07:21:42;114.93;;;34.30;;
41685;SDS011;27370;42.764;23.432;2023-12-20T07:24:07;102.90;;;31.38;;
41685;SDS011;27370;42.764;23.432;2023-12-20T07:26:33;82.07;;;29.75;;
41685;SDS011;27370;42.764;23.432;2023-12-20T07:28:59;88.07;;;26.52;;
41685;SDS011;27370;42.764;23.432;2023-12-20T07:31:24;66.50;;;27.92;;
41685;SDS011;27370;42.764;23.432;2023-12-20T07:33:50;91.60;;;29.15;;
41685;SDS011;27370;42.764;23.432;2023-12-20T07:36:15;81.22;;;28.50;;
41685;SDS011;27370;42.764;23.432;2023-12-20T07:38:41;79.88;;;29.00;;
41685;SDS011;27370;42.764;23.432;2023-12-20T07:41:09;80.25;;;27.83;;
41685;SDS011;27370;42.764;23.432;2023-12-20T07:43:35;78.97;;;26.88;;
41685;SDS011;27370;42.764;23.432;2023-12-20T07:46:07;76.75;;;31.35;;
41685;SDS011;27370;42.764;23.432;2023-12-20T07:48:34;88.03;;;31.05;;
41685;SDS011;27370;42.764;23.432;2023-12-20T07:51:00;93.53;;;32.53;;
41685;SDS011;27370;42.764;23.432;2023-12-20T07:53:26;60.17;;;27.05;;
41685;SDS011;27370;42.764;23.432;2023-12-20T07:55:52;57.55;;;24.08;;
41685;SDS011;27370;42.764;23.432;2023-12-20T07:58:18;65.70;;;27.52;;
41685;SDS011;27370;42.764;23.432;2023-12-20T08:00:44;57.13;;;24.60;;
41685;SDS011;27370;42.764;23.432;2023-12-20T08:03:09;66.80;;;29.13;;
41685;SDS011;27370;42.764;23.432;2023-12-20T08:05:35;71.90;;;28.52;;
41685;SDS011;27370;42.764;23.432;2023-12-20T08:08:01;73.13;;;24.75;;
41685;SDS011;27370;42.764;23.432;2023-12-20T08:10:26;77.55;;;29.02;;
41685;SDS011;27370;42.764;23.432;2023-12-20T08:12:54;72.60;;;27.77;;
41685;SDS011;27370;42.764;23.432;2023-12-20T08:15:20;70.50;;;28.23;;
41685;SDS011;27370;42.764;23.432;2023-12-20T08:17:45;67.32;;;28.45;;
41685;SDS011;27370;42.764;23.432;2023-12-20T08:20:11;81.03;;;30.17;;
41685;SDS011;27370;42.764;23.432;2023-12-20T08:22:36;66.30;;;28.00;;
41685;SDS011;27370;42.764;23.432;2023-12-20T08:25:02;71.82;;;31.42;;
41685;SDS011;27370;42.764;23.432;2023-12-20T08:27:27;94.55;;;36.67;;
41685;SDS011;27370;42.764;23.432;2023-12-20T08:29:53;68.35;;;27.15;;
41685;SDS011;27370;42.764;23.432;2023-12-20T08:32:18;63.65;;;31.27;;
41685;SDS011;27370;42.764;23.432;2023-12-20T08:34:44;75.82;;;27.05;;
41685;SDS011;27370;42.764;23.432;2023-12-20T08:37:10;72.35;;;31.20;;
41685;SDS011;27370;42.764;23.432;2023-12-20T08:39:35;79.82;;;29.23;;
41685;SDS011;27370;42.764;23.432;2023-12-20T08:42:01;69.10;;;29.50;;
41685;SDS011;27370;42.764;23.432;2023-12-20T08:44:26;84.47;;;27.13;;
41685;SDS011;27370;42.764;23.432;2023-12-20T08:46:52;117.07;;;39.50;;
41685;SDS011;27370;42.764;23.432;2023-12-20T08:49:17;61.60;;;27.73;;
41685;SDS011;27370;42.764;23.432;2023-12-20T08:51:43;65.13;;;34.63;;
41685;SDS011;27370;42.764;23.432;2023-12-20T08:54:09;69.25;;;30.52;;
41685;SDS011;27370;42.764;23.432;2023-12-20T08:56:34;74.80;;;30.17;;
41685;SDS011;27370;42.764;23.432;2023-12-20T08:59:00;72.20;;;33.28;;
41685;SDS011;27370;42.764;23.432;2023-12-20T09:01:25;116.43;;;32.92;;
41685;SDS011;27370;42.764;23.432;2023-12-20T09:03:51;169.60;;;42.15;;
41685;SDS011;27370;42.764;23.432;2023-12-20T09:06:16;150.70;;;40.38;;
41685;SDS011;27370;42.764;23.432;2023-12-20T09:08:42;137.15;;;38.58;;
41685;SDS011;27370;42.764;23.432;2023-12-20T09:11:07;114.47;;;35.97;;
41685;SDS011;27370;42.764;23.432;2023-12-20T09:13:33;98.68;;;30.83;;
41685;SDS011;27370;42.764;23.432;2023-12-20T09:15:58;87.22;;;34.40;;
41685;SDS011;27370;42.764;23.432;2023-12-20T09:18:24;87.45;;;34.10;;
41685;SDS011;27370;42.764;23.432;2023-12-20T09:20:50;73.32;;;29.20;;
41685;SDS011;27370;42.764;23.432;2023-12-20T09:23:15;100.95;;;33.53;;
41685;SDS011;27370;42.764;23.432;2023-12-20T09:25:42;103.28;;;38.60;;
41685;SDS011;27370;42.764;23.432;2023-12-20T09:28:07;83.43;;;33.35;;
41685;SDS011;27370;42.764;23.432;2023-12-20T09:30:33;73.43;;;30.10;;
41685;SDS011;27370;42.764;23.432;2023-12-20T09:32:58;90.38;;;35.63;;
41685;SDS011;27370;42.764;23.432;2023-12-20T09:35:24;74.60;;;28.63;;
41685;SDS011;27370;42.764;23.432;2023-12-20T09:37:51;84.95;;;31.45;;
41685;SDS011;27370;42.764;23.432;2023-12-20T09:40:17;75.80;;;33.63;;
41685;SDS011;27370;42.764;23.432;2023-12-20T09:45:47;71.38;;;30.45;;
41685;SDS011;27370;42.764;23.432;2023-12-20T09:48:13;79.28;;;33.78;;
41685;SDS011;27370;42.764;23.432;2023-12-20T09:50:43;79.40;;;32.38;;
41685;SDS011;27370;42.764;23.432;2023-12-20T09:53:09;85.93;;;36.30;;
41685;SDS011;27370;42.764;23.432;2023-12-20T09:55:37;84.90;;;36.30;;
41685;SDS011;27370;42.764;23.432;2023-12-20T09:58:04;87.00;;;37.13;;
41685;SDS011;27370;42.764;23.432;2023-12-20T10:00:32;111.47;;;40.67;;
41685;SDS011;27370;42.764;23.432;2023-12-20T10:02:58;92.18;;;35.13;;
41685;SDS011;27370;42.764;23.432;2023-12-20T10:05:28;83.90;;;35.30;;
41685;SDS011;27370;42.764;23.432;2023-12-20T10:07:55;64.88;;;30.38;;
41685;SDS011;27370;42.764;23.432;2023-12-20T10:10:20;81.88;;;34.53;;
41685;SDS011;27370;42.764;23.432;2023-12-20T10:15:32;80.28;;;32.80;;
41685;SDS011;27370;42.764;23.432;2023-12-20T10:17:59;65.20;;;30.30;;
41685;SDS011;27370;42.764;23.432;2023-12-20T10:20:25;91.90;;;35.78;;
41685;SDS011;27370;42.764;23.432;2023-12-20T10:22:51;78.03;;;35.70;;
41685;SDS011;27370;42.764;23.432;2023-12-20T10:25:19;91.32;;;37.53;;
41685;SDS011;27370;42.764;23.432;2023-12-20T10:27:47;68.70;;;34.75;;
41685;SDS011;27370;42.764;23.432;2023-12-20T10:30:13;71.13;;;30.33;;
41685;SDS011;27370;42.764;23.432;2023-12-20T10:32:39;80.75;;;32.63;;
41685;SDS011;27370;42.764;23.432;2023-12-20T10:35:06;83.25;;;34.08;;
41685;SDS011;27370;42.764;23.432;2023-12-20T10:37:35;97.95;;;34.17;;
41685;SDS011;27370;42.764;23.432;2023-12-20T10:40:03;87.28;;;33.10;;
41685;SDS011;27370;42.764;23.432;2023-12-20T10:42:31;67.75;;;33.45;;
41685;SDS011;27370;42.764;23.432;2023-12-20T10:44:59;78.53;;;32.38;;
41685;SDS011;27370;42.764;23.432;2023-12-20T10:47:25;75.05;;;35.55;;
41685;SDS011;27370;42.764;23.432;2023-12-20T10:49:54;75.63;;;32.33;;
41685;SDS011;27370;42.764;23.432;2023-12-20T10:52:22;79.72;;;35.58;;
41685;SDS011;27370;42.764;23.432;2023-12-20T10:54:49;88.82;;;39.50;;
41685;SDS011;27370;42.764;23.432;2023-12-20T10:57:14;92.63;;;37.92;;
41685;SDS011;27370;42.764;23.432;2023-12-20T10:59:43;136.60;;;52.72;;
41685;SDS011;27370;42.764;23.432;2023-12-20T11:02:12;128.80;;;53.30;;
41685;SDS011;27370;42.764;23.432;2023-12-20T11:04:49;82.15;;;38.65;;
41685;SDS011;27370;42.764;23.432;2023-12-20T11:10:10;103.93;;;40.75;;
41685;SDS011;27370;42.764;23.432;2023-12-20T11:12:53;91.13;;;38.22;;
41685;SDS011;27370;42.764;23.432;2023-12-20T11:17:57;90.53;;;38.88;;
41685;SDS011;27370;42.764;23.432;2023-12-20T11:20:24;88.47;;;38.30;;
41685;SDS011;27370;42.764;23.432;2023-12-20T11:22:59;100.20;;;39.13;;
41685;SDS011;27370;42.764;23.432;2023-12-20T11:25:25;103.53;;;36.90;;
41685;SDS011;27370;42.764;23.432;2023-12-20T11:28:13;131.90;;;41.58;;
41685;SDS011;27370;42.764;23.432;2023-12-20T11:30:56;122.32;;;39.58;;
41685;SDS011;27370;42.764;23.432;2023-12-20T11:33:27;120.00;;;37.15;;
41685;SDS011;27370;42.764;23.432;2023-12-20T11:35:56;95.90;;;35.88;;
41685;SDS011;27370;42.764;23.432;2023-12-20T11:38:23;87.97;;;36.45;;
41685;SDS011;27370;42.764;23.432;2023-12-20T11:40:49;100.85;;;42.22;;
41685;SDS011;27370;42.764;23.432;2023-12-20T11:43:36;127.10;;;38.72;;
41685;SDS011;27370;42.764;23.432;2023-12-20T11:46:07;84.10;;;33.10;;
41685;SDS011;27370;42.764;23.432;2023-12-20T11:48:35;81.75;;;35.15;;
41685;SDS011;27370;42.764;23.432;2023-12-20T11:51:02;107.78;;;33.08;;
41685;SDS011;27370;42.764;23.432;2023-12-20T11:53:34;129.50;;;38.08;;
41685;SDS011;27370;42.764;23.432;2023-12-20T11:56:02;104.45;;;35.08;;
41685;SDS011;27370;42.764;23.432;2023-12-20T11:58:28;108.60;;;34.08;;
41685;SDS011;27370;42.764;23.432;2023-12-20T12:00:54;78.13;;;30.92;;
41685;SDS011;27370;42.764;23.432;2023-12-20T12:03:20;102.45;;;35.28;;
41685;SDS011;27370;42.764;23.432;2023-12-20T12:05:47;81.70;;;35.85;;
41685;SDS011;27370;42.764;23.432;2023-12-20T12:08:13;94.00;;;37.28;;
41685;SDS011;27370;42.764;23.432;2023-12-20T12:10:39;116.22;;;38.63;;
41685;SDS011;27370;42.764;23.432;2023-12-20T12:13:04;111.15;;;42.45;;
41685;SDS011;27370;42.764;23.432;2023-12-20T12:15:30;71.38;;;31.52;;
41685;SDS011;27370;42.764;23.432;2023-12-20T12:17:56;114.13;;;41.67;;
41685;SDS011;27370;42.764;23.432;2023-12-20T12:20:22;191.38;;;46.28;;
41685;SDS011;27370;42.764;23.432;2023-12-20T12:23:04;99.00;;;36.63;;
41685;SDS011;27370;42.764;23.432;2023-12-20T12:25:31;114.95;;;36.40;;
41685;SDS011;27370;42.764;23.432;2023-12-20T12:27:58;136.60;;;33.05;;
41685;SDS011;27370;42.764;23.432;2023-12-20T12:30:25;120.85;;;32.40;;
41685;SDS011;27370;42.764;23.432;2023-12-20T12:32:51;145.45;;;35.08;;
41685;SDS011;27370;42.764;23.432;2023-12-20T12:35:17;116.13;;;29.75;;
41685;SDS011;27370;42.764;23.432;2023-12-20T12:37:44;129.88;;;30.27;;
41685;SDS011;27370;42.764;23.432;2023-12-20T12:40:10;127.53;;;33.13;;
41685;SDS011;27370;42.764;23.432;2023-12-20T12:42:40;142.30;;;32.63;;
41685;SDS011;27370;42.764;23.432;2023-12-20T12:45:07;152.48;;;37.63;;
41685;SDS011;27370;42.764;23.432;2023-12-20T12:47:33;81.72;;;26.88;;
41685;SDS011;27370;42.764;23.432;2023-12-20T12:49:59;86.38;;;25.55;;
41685;SDS011;27370;42.764;23.432;2023-12-20T12:52:25;86.43;;;25.90;;
41685;SDS011;27370;42.764;23.432;2023-12-20T12:54:52;114.47;;;31.58;;
41685;SDS011;27370;42.764;23.432;2023-12-20T12:57:17;110.47;;;32.20;;
41685;SDS011;27370;42.764;23.432;2023-12-20T12:59:44;107.05;;;32.35;;
41685;SDS011;27370;42.764;23.432;2023-12-20T13:02:13;101.55;;;25.30;;
41685;SDS011;27370;42.764;23.432;2023-12-20T13:04:39;49.75;;;22.73;;
41685;SDS011;27370;42.764;23.432;2023-12-20T13:07:06;48.88;;;21.10;;
41685;SDS011;27370;42.764;23.432;2023-12-20T13:09:32;58.45;;;19.80;;
41685;SDS011;27370;42.764;23.432;2023-12-20T13:11:58;53.72;;;19.70;;
41685;SDS011;27370;42.764;23.432;2023-12-20T13:14:24;60.85;;;22.85;;
41685;SDS011;27370;42.764;23.432;2023-12-20T13:16:50;83.78;;;24.05;;
41685;SDS011;27370;42.764;23.432;2023-12-20T13:19:15;80.13;;;24.15;;
41685;SDS011;27370;42.764;23.432;2023-12-20T13:21:41;177.57;;;34.10;;
41685;SDS011;27370;42.764;23.432;2023-12-20T13:24:07;158.63;;;29.90;;
41685;SDS011;27370;42.764;23.432;2023-12-20T13:26:32;118.07;;;24.92;;
41685;SDS011;27370;42.764;23.432;2023-12-20T13:28:58;73.18;;;25.20;;
41685;SDS011;27370;42.764;23.432;2023-12-20T13:31:23;79.03;;;26.23;;
41685;SDS011;27370;42.764;23.432;2023-12-20T13:33:49;91.28;;;25.10;;
41685;SDS011;27370;42.764;23.432;2023-12-20T13:36:16;68.47;;;24.50;;
41685;SDS011;27370;42.764;23.432;2023-12-20T13:38:41;90.65;;;25.50;;
41685;SDS011;27370;42.764;23.432;2023-12-20T13:41:08;118.05;;;30.20;;
41685;SDS011;27370;42.764;23.432;2023-12-20T13:43:33;122.65;;;35.45;;
41685;SDS011;27370;42.764;23.432;2023-12-20T13:45:59;102.72;;;32.60;;
41685;SDS011;27370;42.764;23.432;2023-12-20T13:48:25;104.35;;;32.42;;
41685;SDS011;27370;42.764;23.432;2023-12-20T13:50:50;95.30;;;32.35;;
41685;SDS011;27370;42.764;23.432;2023-12-20T13:53:16;116.90;;;32.25;;
41685;SDS011;27370;42.764;23.432;2023-12-20T13:55:42;112.68;;;31.90;;
41685;SDS011;27370;42.764;23.432;2023-12-20T13:58:07;83.28;;;25.25;;
41685;SDS011;27370;42.764;23.432;2023-12-20T14:00:35;126.72;;;27.48;;
41685;SDS011;27370;42.764;23.432;2023-12-20T14:03:02;97.97;;;23.15;;
41685;SDS011;27370;42.764;23.432;2023-12-20T14:05:28;94.57;;;24.85;;
41685;SDS011;27370;42.764;23.432;2023-12-20T14:07:54;65.60;;;26.13;;
41685;SDS011;27370;42.764;23.432;2023-12-20T14:10:23;73.20;;;27.45;;
41685;SDS011;27370;42.764;23.432;2023-12-20T14:12:51;165.60;;;37.65;;
41685;SDS011;27370;42.764;23.432;2023-12-20T14:15:17;154.85;;;33.60;;
41685;SDS011;27370;42.764;23.432;2023-12-20T14:17:43;130.65;;;33.10;;
41685;SDS011;27370;42.764;23.432;2023-12-20T14:20:08;184.88;;;42.50;;
41685;SDS011;27370;42.764;23.432;2023-12-20T14:22:35;277.08;;;51.25;;
41685;SDS011;27370;42.764;23.432;2023-12-20T14:25:01;233.07;;;42.95;;
41685;SDS011;27370;42.764;23.432;2023-12-20T14:27:27;223.80;;;42.25;;
41685;SDS011;27370;42.764;23.432;2023-12-20T14:29:53;154.30;;;31.33;;
41685;SDS011;27370;42.764;23.432;2023-12-20T14:32:19;104.10;;;28.20;;
41685;SDS011;27370;42.764;23.432;2023-12-20T14:34:45;126.70;;;25.85;;
41685;SDS011;27370;42.764;23.432;2023-12-20T14:37:11;127.93;;;27.88;;